Time;durP1;ratioP1;P1;durP2;ratioP2;P2;SDS_P1;SDS_P2;PMS_P1;PMS_P2;Temp;Humidity;BMP_temperature;BMP_pressure;BME280_temperature;BME280_humidity;BME280_pressure;Samples;Min_cycle;Max_cycle;Signal;HPM_P1;HPM_P2
2024/01/31 00:00:14;;;;;;;14.67;10.63;;;-1.10;77.60;;;;;;6279511;28;20247;-67
2024/01/31 00:03:15;;;;;;;18.83;11.93;;;-1.10;77.30;;;;;;6255291;28;20204;-67
2024/01/31 00:06:15;;;;;;;15.30;10.80;;;-1.10;77.50;;;;;;6249602;28;20220;-67
2024/01/31 00:09:16;;;;;;;20.50;11.17;;;-1.10;77.40;;;;;;6262937;28;20191;-67
2024/01/31 00:12:17;;;;;;;16.47;11.20;;;-1.10;77.40;;;;;;6247216;28;20222;-67
2024/01/31 00:15:17;;;;;;;16.50;10.77;;;-1.10;77.50;;;;;;6253860;28;20273;-67
2024/01/31 00:18:18;;;;;;;14.83;11.17;;;-1.10;77.50;;;;;;6252165;28;20190;-67
2024/01/31 00:21:19;;;;;;;16.23;12.17;;;-1.10;77.10;;;;;;6247786;28;20191;-67
2024/01/31 00:24:20;;;;;;;18.30;11.27;;;-1.10;77.00;;;;;;6237522;28;20197;-67
2024/01/31 00:27:20;;;;;;;16.73;11.23;;;-1.20;77.10;;;;;;6246481;28;20224;-67
2024/01/31 00:30:21;;;;;;;15.57;11.53;;;-1.20;77.50;;;;;;6262013;28;20189;-67
2024/01/31 00:33:21;;;;;;;18.03;11.53;;;-1.20;77.70;;;;;;6250100;28;20283;-67
2024/01/31 00:36:22;;;;;;;14.80;11.10;;;-1.20;77.20;;;;;;6239447;28;20190;-67
2024/01/31 00:39:28;;;;;;;17.30;11.60;;;-1.20;77.80;;;;;;6240340;28;20189;-67
2024/01/31 00:42:28;;;;;;;15.53;10.90;;;-1.20;77.50;;;;;;6281101;28;20190;-67
2024/01/31 00:45:30;;;;;;;18.83;11.23;;;-1.30;76.90;;;;;;6262086;28;20262;-67
2024/01/31 00:48:32;;;;;;;19.63;11.77;;;-1.30;77.30;;;;;;6252808;28;20187;-67
2024/01/31 00:51:32;;;;;;;14.63;11.03;;;-1.30;77.30;;;;;;6246090;28;20212;-67
2024/01/31 00:54:33;;;;;;;18.97;12.03;;;-1.30;77.20;;;;;;6235736;28;20209;-67
2024/01/31 00:57:34;;;;;;;17.57;11.30;;;-1.30;77.50;;;;;;6253142;28;20539;-67
2024/01/31 01:00:35;;;;;;;16.37;10.67;;;-1.30;77.60;;;;;;6244015;28;20237;-67
2024/01/31 01:03:35;;;;;;;18.10;10.80;;;-1.30;77.50;;;;;;6242072;28;20191;-67
2024/01/31 01:06:39;;;;;;;15.37;10.70;;;-1.30;77.50;;;;;;6256316;28;20213;-67
2024/01/31 01:09:40;;;;;;;14.20;10.00;;;-1.30;77.50;;;;;;6256416;28;20186;-67
2024/01/31 01:12:44;;;;;;;14.93;9.83;;;-1.40;77.40;;;;;;6239047;28;20189;-67
2024/01/31 01:15:45;;;;;;;17.93;10.97;;;-1.40;77.50;;;;;;6247867;28;20227;-66
2024/01/31 01:18:46;;;;;;;12.83;10.27;;;-1.40;77.70;;;;;;6249006;28;20190;-67
2024/01/31 01:21:47;;;;;;;13.83;9.73;;;-1.40;77.70;;;;;;6258369;28;20192;-67
2024/01/31 01:24:47;;;;;;;13.87;10.10;;;-1.50;77.60;;;;;;6258431;28;20254;-67
2024/01/31 01:27:51;;;;;;;15.33;10.43;;;-1.50;77.70;;;;;;6258635;28;20282;-67
2024/01/31 01:30:51;;;;;;;17.93;11.23;;;-1.50;78.10;;;;;;6228141;28;20898;-67
2024/01/31 01:33:52;;;;;;;16.47;9.73;;;-1.40;77.30;;;;;;6278931;28;20195;-67
2024/01/31 01:36:53;;;;;;;19.17;11.23;;;-1.50;77.30;;;;;;6266897;28;20194;-67
2024/01/31 01:39:53;;;;;;;19.17;10.63;;;-1.50;77.60;;;;;;6270013;28;20297;-67
2024/01/31 01:42:54;;;;;;;14.07;10.37;;;-1.50;77.70;;;;;;6244907;28;20200;-67
2024/01/31 01:46:09;;;;;;;14.40;10.67;;;-1.50;77.80;;;;;;6241139;28;20214;-67
2024/01/31 01:49:17;;;;;;;14.40;9.40;;;-1.50;77.80;;;;;;6256657;28;20193;-67
2024/01/31 01:52:18;;;;;;;16.80;10.97;;;-1.50;77.90;;;;;;6259402;28;20254;-67
2024/01/31 01:55:19;;;;;;;17.93;10.23;;;-1.50;78.20;;;;;;6255411;28;20190;-67
2024/01/31 01:58:19;;;;;;;15.87;10.13;;;-1.50;78.20;;;;;;6256217;28;20197;-67
2024/01/31 02:01:21;;;;;;;15.53;10.47;;;-1.50;78.60;;;;;;6247618;28;20338;-67
2024/01/31 02:04:22;;;;;;;16.57;9.93;;;-1.50;78.20;;;;;;6266154;28;20192;-67
2024/01/31 02:07:27;;;;;;;15.27;10.43;;;-1.50;78.20;;;;;;6243085;28;20216;-67
2024/01/31 02:10:27;;;;;;;15.07;9.23;;;-1.40;78.90;;;;;;6255188;28;20201;-67
2024/01/31 02:13:28;;;;;;;13.30;10.20;;;-1.30;78.70;;;;;;6248583;28;20189;-67
2024/01/31 02:16:29;;;;;;;17.77;10.87;;;-1.30;78.80;;;;;;6249772;28;20191;-67
2024/01/31 02:19:30;;;;;;;13.60;8.93;;;-1.30;79.20;;;;;;6251013;28;20186;-67
2024/01/31 02:22:31;;;;;;;15.60;10.10;;;-1.30;78.70;;;;;;6247072;28;20189;-67
2024/01/31 02:25:31;;;;;;;16.40;9.83;;;-1.40;78.70;;;;;;6253122;28;20217;-67
2024/01/31 02:28:32;;;;;;;18.37;9.87;;;-1.40;78.60;;;;;;6254000;28;20190;-67
2024/01/31 02:31:33;;;;;;;13.47;9.97;;;-1.50;78.60;;;;;;6256806;28;20186;-67
2024/01/31 02:34:33;;;;;;;12.10;9.13;;;-1.50;78.60;;;;;;6267923;28;20225;-67
2024/01/31 02:37:34;;;;;;;16.20;9.03;;;-1.50;78.90;;;;;;6282571;28;20195;-67
2024/01/31 02:40:35;;;;;;;17.67;8.97;;;-1.50;78.60;;;;;;6251218;28;20186;-67
2024/01/31 02:43:35;;;;;;;12.43;9.50;;;-1.50;78.60;;;;;;6256581;28;20193;-67
2024/01/31 02:46:37;;;;;;;16.73;9.53;;;-1.40;79.00;;;;;;6275531;28;20224;-67
2024/01/31 02:49:38;;;;;;;12.93;9.13;;;-1.50;78.70;;;;;;6259099;28;20200;-67
2024/01/31 02:52:39;;;;;;;13.03;8.73;;;-1.50;79.00;;;;;;6253319;28;20183;-67
2024/01/31 02:55:39;;;;;;;13.43;10.13;;;-1.40;79.10;;;;;;6261219;28;20262;-66
2024/01/31 02:58:40;;;;;;;14.30;9.87;;;-1.50;78.60;;;;;;6253774;28;20199;-66
2024/01/31 03:01:48;;;;;;;13.73;9.23;;;-1.50;78.90;;;;;;6258010;28;20245;-67
2024/01/31 03:04:48;;;;;;;14.90;9.20;;;-1.50;78.90;;;;;;6241495;28;20205;-66
2024/01/31 03:07:49;;;;;;;13.90;8.47;;;-1.50;78.80;;;;;;6250144;28;20193;-67
2024/01/31 03:10:50;;;;;;;13.00;9.23;;;-1.50;78.70;;;;;;6281566;28;20221;-67
2024/01/31 03:13:51;;;;;;;11.70;8.23;;;-1.50;78.80;;;;;;6254717;28;20186;-67
2024/01/31 03:16:52;;;;;;;14.20;8.93;;;-1.50;78.50;;;;;;6257188;28;20190;-66
2024/01/31 03:19:53;;;;;;;19.40;11.53;;;-1.50;78.80;;;;;;6238854;28;20197;-67
2024/01/31 03:22:54;;;;;;;17.73;10.23;;;-1.50;78.70;;;;;;6241110;28;20280;-67
2024/01/31 03:25:54;;;;;;;15.37;11.03;;;-1.50;78.50;;;;;;6263501;28;20209;-67
2024/01/31 03:28:55;;;;;;;16.93;10.10;;;-1.40;78.00;;;;;;6257226;28;20197;-67
2024/01/31 03:31:57;;;;;;;15.13;9.90;;;-1.40;78.00;;;;;;6259240;28;20197;-66
2024/01/31 03:34:58;;;;;;;15.07;10.50;;;-1.50;78.00;;;;;;6252994;28;20280;-67
2024/01/31 03:37:58;;;;;;;16.73;9.97;;;-1.40;78.40;;;;;;6247110;28;20194;-66
2024/01/31 03:40:59;;;;;;;15.17;10.57;;;-1.40;78.40;;;;;;6250722;28;20189;-67
2024/01/31 03:44:00;;;;;;;18.20;11.07;;;-1.30;78.40;;;;;;6236607;28;20189;-66
2024/01/31 03:47:00;;;;;;;17.00;12.20;;;-1.30;78.50;;;;;;6236949;28;20206;-67
2024/01/31 03:50:04;;;;;;;17.80;10.93;;;-1.30;78.40;;;;;;6254534;28;20186;-67
2024/01/31 03:53:04;;;;;;;15.40;10.60;;;-1.30;78.50;;;;;;6239539;28;20274;-67
2024/01/31 03:56:06;;;;;;;16.53;10.83;;;-1.30;78.50;;;;;;6242384;28;20238;-67
2024/01/31 03:59:08;;;;;;;17.47;10.13;;;-1.30;78.40;;;;;;6262941;28;20194;-67
2024/01/31 04:02:08;;;;;;;16.53;11.40;;;-1.30;78.60;;;;;;6262977;28;20280;-67
2024/01/31 04:05:10;;;;;;;14.97;10.03;;;-1.30;78.90;;;;;;6259506;28;20217;-66
2024/01/31 04:08:11;;;;;;;17.60;10.73;;;-1.30;79.00;;;;;;6242942;28;20195;-67
2024/01/31 04:11:12;;;;;;;19.53;12.13;;;-1.30;79.30;;;;;;6243663;28;20205;-67
2024/01/31 04:14:13;;;;;;;19.20;11.37;;;-1.30;79.00;;;;;;6266171;28;20194;-67
2024/01/31 04:17:13;;;;;;;15.83;10.63;;;-1.30;79.10;;;;;;6240785;28;20198;-67
2024/01/31 04:20:14;;;;;;;12.20;9.87;;;-1.20;78.90;;;;;;6237298;28;20483;-67
2024/01/31 04:23:15;;;;;;;12.93;9.93;;;-1.10;78.50;;;;;;6235947;28;20197;-67
2024/01/31 04:26:16;;;;;;;14.00;10.80;;;-1.10;78.40;;;;;;6240942;28;20245;-67
2024/01/31 04:29:17;;;;;;;16.73;11.37;;;-1.10;79.00;;;;;;6247098;28;20202;-67
2024/01/31 04:32:17;;;;;;;18.33;10.80;;;-1.10;79.00;;;;;;6242697;28;20196;-66
2024/01/31 04:35:18;;;;;;;18.10;11.70;;;-1.10;78.90;;;;;;6258813;28;20202;-65
2024/01/31 04:38:19;;;;;;;18.47;12.17;;;-1.10;78.90;;;;;;6240653;28;20191;-67
2024/01/31 04:41:20;;;;;;;14.70;10.23;;;-1.10;78.70;;;;;;6241268;28;20332;-66
2024/01/31 04:44:20;;;;;;;17.83;11.20;;;-1.10;78.70;;;;;;6257614;28;20186;-66
2024/01/31 04:47:25;;;;;;;16.03;11.67;;;-1.10;79.10;;;;;;6248937;28;20217;-66
2024/01/31 04:50:25;;;;;;;15.40;10.63;;;-1.10;79.20;;;;;;6249776;28;20201;-66
2024/01/31 04:53:26;;;;;;;14.97;11.23;;;-1.10;78.70;;;;;;6259421;28;20250;-67
2024/01/31 04:56:27;;;;;;;14.63;10.13;;;-1.00;78.60;;;;;;6239684;28;20205;-65
2024/01/31 04:59:27;;;;;;;14.77;11.03;;;-1.00;78.60;;;;;;6236127;28;20201;-66
2024/01/31 05:02:28;;;;;;;16.70;10.63;;;-1.00;78.70;;;;;;6259330;28;20231;-66
2024/01/31 05:05:29;;;;;;;15.70;11.07;;;-1.00;78.80;;;;;;6270565;28;20232;-66
2024/01/31 05:08:30;;;;;;;17.83;11.43;;;-1.00;78.90;;;;;;6245141;28;20190;-67
2024/01/31 05:11:30;;;;;;;16.80;11.10;;;-1.00;78.80;;;;;;6245020;28;20189;-69
2024/01/31 05:14:31;;;;;;;14.93;10.67;;;-1.00;78.90;;;;;;6251398;28;20211;-69
2024/01/31 05:17:32;;;;;;;16.97;11.00;;;-1.00;78.90;;;;;;6250860;28;20277;-66
2024/01/31 05:20:32;;;;;;;13.97;10.67;;;-1.10;78.90;;;;;;6253139;28;20191;-66
2024/01/31 05:23:33;;;;;;;19.07;11.00;;;-1.10;79.00;;;;;;6242310;28;20248;-66
2024/01/31 05:26:34;;;;;;;19.13;10.70;;;-1.10;79.10;;;;;;6270325;28;20236;-66
2024/01/31 05:29:35;;;;;;;18.53;11.47;;;-1.10;79.10;;;;;;6246664;28;20193;-67
2024/01/31 05:32:35;;;;;;;16.87;10.27;;;-1.10;79.10;;;;;;6256408;28;20189;-67
2024/01/31 05:35:36;;;;;;;17.60;10.53;;;-1.10;79.10;;;;;;6270516;28;20201;-67
2024/01/31 05:38:39;;;;;;;14.23;10.00;;;-1.10;79.20;;;;;;6273066;28;20246;-68
2024/01/31 05:41:44;;;;;;;13.77;9.30;;;-1.10;79.30;;;;;;6262346;28;20194;-68
2024/01/31 05:44:44;;;;;;;15.50;10.20;;;-1.10;79.30;;;;;;6249295;28;20221;-67
2024/01/31 05:47:45;;;;;;;13.97;10.33;;;-1.00;79.50;;;;;;6249494;28;20253;-68
2024/01/31 05:50:46;;;;;;;16.63;9.50;;;-1.10;79.30;;;;;;6241598;28;20213;-67
2024/01/31 05:53:46;;;;;;;13.53;9.80;;;-1.10;79.50;;;;;;6249506;28;20197;-67
2024/01/31 05:56:50;;;;;;;20.10;10.20;;;-1.00;79.40;;;;;;6233905;28;20187;-68
2024/01/31 05:59:51;;;;;;;16.57;10.07;;;-1.00;79.40;;;;;;6247343;28;20201;-67
2024/01/31 06:02:51;;;;;;;19.07;10.73;;;-1.00;79.50;;;;;;6249889;28;20202;-67
2024/01/31 06:05:52;;;;;;;11.03;8.87;;;-1.00;80.00;;;;;;6241541;28;20225;-68
2024/01/31 06:08:53;;;;;;;14.90;9.87;;;-1.00;79.50;;;;;;6263960;28;20208;-67
2024/01/31 06:11:53;;;;;;;16.27;9.23;;;-1.00;79.80;;;;;;6246494;28;20198;-68
2024/01/31 06:14:54;;;;;;;14.87;8.57;;;-0.90;79.60;;;;;;6257331;28;20218;-67
2024/01/31 06:17:55;;;;;;;12.63;8.97;;;-0.90;79.30;;;;;;6242122;28;20199;-67
2024/01/31 06:20:56;;;;;;;12.30;8.23;;;-0.90;79.70;;;;;;6256545;28;20193;-67
2024/01/31 06:23:57;;;;;;;14.70;9.63;;;-0.90;79.50;;;;;;6256312;28;20247;-67
2024/01/31 06:26:58;;;;;;;17.27;10.80;;;-0.90;79.70;;;;;;6238930;28;20382;-67
2024/01/31 06:30:00;;;;;;;16.67;10.83;;;-0.90;79.30;;;;;;6275709;28;20190;-67
2024/01/31 06:33:07;;;;;;;15.00;10.77;;;-0.90;79.40;;;;;;6258024;28;20187;-68
2024/01/31 06:36:09;;;;;;;16.80;11.47;;;-0.90;79.10;;;;;;6274153;28;20220;-67
2024/01/31 06:39:10;;;;;;;13.43;10.13;;;-0.90;79.20;;;;;;6251326;28;20248;-67
2024/01/31 06:42:11;;;;;;;13.60;9.90;;;-0.90;79.30;;;;;;6269725;28;20208;-68
2024/01/31 06:45:11;;;;;;;13.60;9.37;;;-0.90;79.40;;;;;;6251969;28;20210;-68
2024/01/31 06:48:13;;;;;;;14.13;8.03;;;-0.90;79.50;;;;;;6242485;28;20195;-68
2024/01/31 06:51:13;;;;;;;13.07;8.73;;;-0.90;79.70;;;;;;6257372;28;20186;-67
2024/01/31 06:54:14;;;;;;;15.03;9.13;;;-0.90;79.50;;;;;;6254078;28;20182;-68
2024/01/31 06:57:15;;;;;;;14.93;9.23;;;-0.90;79.80;;;;;;6275126;28;20197;-67
2024/01/31 07:00:16;;;;;;;13.70;8.97;;;-0.90;79.20;;;;;;6250064;28;20346;-67
2024/01/31 07:03:17;;;;;;;13.70;8.83;;;-0.90;79.30;;;;;;6247699;28;20316;-67
2024/01/31 07:06:18;;;;;;;14.50;9.43;;;-0.90;79.60;;;;;;6244374;28;20293;-67
2024/01/31 07:09:19;;;;;;;14.43;8.77;;;-1.00;79.80;;;;;;6247067;28;20236;-67
2024/01/31 07:12:20;;;;;;;13.90;10.07;;;-1.00;79.90;;;;;;6249076;28;20190;-67
2024/01/31 07:15:21;;;;;;;12.17;8.37;;;-1.00;79.60;;;;;;6267469;28;20190;-67
2024/01/31 07:18:21;;;;;;;13.70;8.53;;;-1.00;80.00;;;;;;6257421;28;20198;-67
2024/01/31 07:21:24;;;;;;;12.97;8.43;;;-0.90;79.50;;;;;;6262984;28;20197;-67
2024/01/31 07:24:27;;;;;;;13.80;9.47;;;-1.00;79.80;;;;;;6258701;28;20182;-67
2024/01/31 07:27:28;;;;;;;16.03;8.93;;;-1.10;80.40;;;;;;6270969;28;20210;-67
2024/01/31 07:30:29;;;;;;;13.20;8.20;;;-1.00;80.30;;;;;;6251646;28;20183;-67
2024/01/31 07:33:29;;;;;;;12.97;8.07;;;-1.00;80.30;;;;;;6255483;28;20194;-68
2024/01/31 07:36:30;;;;;;;14.43;9.10;;;-1.00;80.10;;;;;;6252674;28;20195;-67
2024/01/31 07:39:31;;;;;;;16.03;8.33;;;-1.00;80.00;;;;;;6260068;28;20243;-67
2024/01/31 07:42:32;;;;;;;16.27;9.23;;;-0.90;80.10;;;;;;6288463;28;20191;-68
2024/01/31 07:45:32;;;;;;;17.17;9.90;;;-0.80;80.10;;;;;;6251348;28;20209;-68
2024/01/31 07:48:33;;;;;;;14.37;9.63;;;-0.70;80.00;;;;;;6262904;28;20195;-67
2024/01/31 07:51:41;;;;;;;15.13;10.23;;;-0.60;79.70;;;;;;6255427;28;20186;-68
2024/01/31 07:54:42;;;;;;;16.67;9.43;;;-0.50;79.10;;;;;;6250319;28;20235;-68
2024/01/31 07:57:43;;;;;;;13.87;9.93;;;-0.40;79.20;;;;;;6244934;28;20198;-67
2024/01/31 08:00:43;;;;;;;13.70;9.83;;;-0.30;79.00;;;;;;6273114;28;20265;-67
2024/01/31 08:03:45;;;;;;;14.50;10.17;;;-0.20;79.00;;;;;;6241344;28;20197;-67
2024/01/31 08:06:45;;;;;;;14.90;9.53;;;-0.10;78.90;;;;;;6238950;28;20210;-67
2024/01/31 08:09:46;;;;;;;14.87;9.50;;;0.00;78.50;;;;;;6270968;28;20189;-68
2024/01/31 08:12:48;;;;;;;16.10;11.13;;;0.00;78.40;;;;;;6255581;28;20195;-67
2024/01/31 08:15:49;;;;;;;13.80;10.60;;;0.00;78.70;;;;;;6255006;28;20198;-67
2024/01/31 08:18:49;;;;;;;18.07;9.87;;;0.00;78.80;;;;;;6244738;28;20197;-68
2024/01/31 08:21:50;;;;;;;12.20;9.17;;;0.00;78.50;;;;;;6257432;28;20198;-67
2024/01/31 08:24:51;;;;;;;14.03;9.37;;;0.00;78.60;;;;;;6242791;28;20192;-68
2024/01/31 08:27:53;;;;;;;12.13;9.03;;;0.00;79.00;;;;;;6271546;28;20303;-68
2024/01/31 08:30:53;;;;;;;14.43;9.70;;;0.10;79.00;;;;;;6254598;28;20193;-67
2024/01/31 08:33:54;;;;;;;15.93;9.83;;;0.10;78.80;;;;;;6251369;28;20188;-67
2024/01/31 08:36:55;;;;;;;12.17;10.10;;;0.10;78.80;;;;;;6237270;28;20214;-67
2024/01/31 08:39:56;;;;;;;14.33;10.80;;;0.10;78.90;;;;;;6238349;28;20249;-68
2024/01/31 08:42:58;;;;;;;12.67;9.90;;;0.10;79.00;;;;;;6255278;28;20244;-68
2024/01/31 08:45:58;;;;;;;13.63;10.83;;;0.20;79.00;;;;;;6275663;28;20237;-67
2024/01/31 08:48:59;;;;;;;14.90;10.03;;;0.20;78.70;;;;;;6249322;28;20194;-68
2024/01/31 08:52:00;;;;;;;16.37;10.90;;;0.20;79.00;;;;;;6241449;28;20193;-67
2024/01/31 08:55:00;;;;;;;14.10;10.50;;;0.20;79.00;;;;;;6238854;28;20185;-68
2024/01/31 08:58:01;;;;;;;15.83;10.67;;;0.30;78.80;;;;;;6254323;28;20185;-68
2024/01/31 09:01:03;;;;;;;15.03;10.27;;;0.20;78.80;;;;;;6251417;28;20226;-67
2024/01/31 09:04:04;;;;;;;16.10;10.53;;;0.30;79.00;;;;;;6243083;28;20281;-68
2024/01/31 09:07:05;;;;;;;14.87;10.13;;;0.30;78.70;;;;;;6281808;28;20203;-67
2024/01/31 09:10:06;;;;;;;13.60;10.53;;;0.30;78.90;;;;;;6272554;28;20216;-68
2024/01/31 09:13:07;;;;;;;12.13;9.03;;;0.40;78.70;;;;;;6246695;28;20197;-68
2024/01/31 09:16:08;;;;;;;15.57;9.73;;;0.40;78.70;;;;;;6234132;28;20194;-68
2024/01/31 09:19:09;;;;;;;13.57;9.17;;;0.50;79.00;;;;;;6253299;28;20259;-67
2024/01/31 09:22:09;;;;;;;15.20;10.10;;;0.50;79.20;;;;;;6249619;28;20236;-68
2024/01/31 09:25:15;;;;;;;19.00;10.63;;;0.60;79.30;;;;;;6249700;28;20202;-68
2024/01/31 09:28:16;;;;;;;13.07;9.80;;;0.60;79.40;;;;;;6250163;28;20201;-68
2024/01/31 09:31:24;;;;;;;14.67;10.63;;;0.80;79.50;;;;;;6258592;28;20186;-68
2024/01/31 09:34:24;;;;;;;15.23;10.20;;;0.80;79.20;;;;;;6274248;28;20254;-68
2024/01/31 09:37:25;;;;;;;14.57;9.90;;;1.00;80.10;;;;;;6250673;28;20188;-68
2024/01/31 09:40:26;;;;;;;13.00;9.37;;;;;;;;;;6250516;28;20251;-68
2024/01/31 09:43:27;;;;;;;12.03;7.60;;;;;;;;;;6264402;28;20186;-68
2024/01/31 09:46:30;;;;;;;9.93;7.00;;;;;;;;;;6233280;28;20237;-68
2024/01/31 09:49:31;;;;;;;12.47;7.77;;;;;;;;;;6280760;28;20186;-68
2024/01/31 09:52:38;;;;;;;9.53;7.03;;;;;;;;;;6252429;28;20220;-68
2024/01/31 09:55:39;;;;;;;14.27;6.90;;;;;;;;;;6281426;28;20195;-67
2024/01/31 09:58:39;;;;;;;11.13;7.63;;;1.00;78.90;;;;;;6254675;28;20239;-68
2024/01/31 10:01:41;;;;;;;18.33;8.40;;;1.90;74.60;;;;;;6237362;28;20237;-68
2024/01/31 10:04:46;;;;;;;12.33;7.90;;;2.00;72.70;;;;;;6245729;28;20244;-68
2024/01/31 10:07:47;;;;;;;14.10;8.97;;;2.10;72.70;;;;;;6263451;28;20218;-68
2024/01/31 10:10:48;;;;;;;17.10;9.07;;;2.30;72.00;;;;;;6250273;28;20186;-67
2024/01/31 10:13:49;;;;;;;15.17;8.30;;;2.40;71.20;;;;;;6250126;28;20197;-68
2024/01/31 10:16:49;;;;;;;16.00;9.47;;;2.40;71.40;;;;;;6268941;28;20280;-68
2024/01/31 10:19:50;;;;;;;12.50;8.47;;;2.50;71.50;;;;;;6284090;28;20198;-68
2024/01/31 10:22:51;;;;;;;13.93;9.13;;;2.60;71.60;;;;;;6266999;28;20178;-68
2024/01/31 10:25:52;;;;;;;13.30;9.37;;;2.70;71.40;;;;;;6244246;28;20217;-68
2024/01/31 10:28:53;;;;;;;14.00;9.07;;;;;;;;;;6268605;28;20190;-68
2024/01/31 10:31:55;;;;;;;12.63;9.10;;;;;;;;;;6256466;28;20190;-67
2024/01/31 10:34:56;;;;;;;12.80;8.77;;;;;;;;;;6280240;28;20214;-68
2024/01/31 10:37:57;;;;;;;17.83;9.43;;;;;;;;;;6273466;28;20268;-68
2024/01/31 10:40:59;;;;;;;12.27;7.33;;;2.80;70.90;;;;;;6267628;28;20195;-68
2024/01/31 10:44:05;;;;;;;11.07;8.23;;;3.60;67.00;;;;;;6252969;28;20217;-68
2024/01/31 10:47:07;;;;;;;13.23;8.87;;;3.80;66.60;;;;;;6255583;28;20210;-68
2024/01/31 10:50:09;;;;;;;18.87;10.17;;;;;;;;;;6265616;28;20210;-68
2024/01/31 10:53:10;;;;;;;16.03;10.33;;;;;;;;;;6268167;28;20194;-68
2024/01/31 10:56:11;;;;;;;24.33;15.63;;;;;;;;;;6280059;28;20286;-68
2024/01/31 10:59:12;;;;;;;27.07;16.03;;;;;;;;;;6263221;28;20194;-68
2024/01/31 11:02:17;;;;;;;23.73;14.30;;;3.90;66.10;;;;;;6274746;28;20245;-68
2024/01/31 11:05:18;;;;;;;18.13;13.20;;;4.60;64.30;;;;;;6248844;28;20186;-68
2024/01/31 11:08:23;;;;;;;21.30;13.07;;;4.70;64.40;;;;;;6251314;28;20209;-68
2024/01/31 11:11:24;;;;;;;23.43;15.10;;;4.70;64.40;;;;;;6254162;28;20190;-68
2024/01/31 11:14:32;;;;;;;24.23;14.63;;;4.80;63.10;;;;;;6243980;28;20190;-68
2024/01/31 11:17:34;;;;;;;28.60;15.33;;;4.90;63.00;;;;;;6248835;28;20259;-68
2024/01/31 11:20:44;;;;;;;20.30;14.93;;;5.00;62.80;;;;;;6239653;28;20285;-68
2024/01/31 11:23:45;;;;;;;25.63;17.50;;;5.00;63.10;;;;;;6265324;28;20221;-68
2024/01/31 11:26:46;;;;;;;33.27;18.77;;;5.10;62.70;;;;;;6258419;28;20213;-68
2024/01/31 11:29:51;;;;;;;26.77;17.30;;;5.10;62.80;;;;;;6252878;28;20190;-68
2024/01/31 11:32:51;;;;;;;30.53;16.63;;;5.30;62.80;;;;;;6248356;28;20202;-68
2024/01/31 11:35:52;;;;;;;28.90;17.30;;;5.30;62.10;;;;;;6274016;28;20201;-68
2024/01/31 11:38:53;;;;;;;26.70;16.63;;;5.50;61.40;;;;;;6240197;28;20191;-68
2024/01/31 11:41:55;;;;;;;30.30;17.77;;;5.50;61.40;;;;;;6246571;28;20201;-68
2024/01/31 11:44:55;;;;;;;33.13;19.63;;;5.60;61.20;;;;;;6241755;28;20194;-68
2024/01/31 11:47:57;;;;;;;32.03;19.70;;;5.70;61.00;;;;;;6255241;28;20210;-69
2024/01/31 11:50:59;;;;;;;28.17;17.60;;;;;;;;;;6259595;28;20189;-69
2024/01/31 11:53:59;;;;;;;28.70;17.47;;;5.80;60.90;;;;;;6266049;28;20193;-68
2024/01/31 11:57:00;;;;;;;27.67;17.37;;;6.10;59.70;;;;;;6249292;28;20199;-68
2024/01/31 12:00:04;;;;;;;28.50;18.20;;;6.30;59.70;;;;;;6252646;28;20202;-68
2024/01/31 12:03:05;;;;;;;25.43;16.43;;;6.40;59.10;;;;;;6249682;28;20199;-68
2024/01/31 12:06:06;;;;;;;25.10;17.33;;;6.60;58.60;;;;;;6241831;28;20215;-68
2024/01/31 12:09:07;;;;;;;26.10;16.60;;;6.80;58.20;;;;;;6248987;28;20209;-68
2024/01/31 12:12:09;;;;;;;27.50;16.97;;;7.00;57.60;;;;;;6232420;28;20218;-68
2024/01/31 12:15:13;;;;;;;31.27;17.17;;;;;;;;;;6247642;28;20200;-68
2024/01/31 12:18:15;;;;;;;21.50;15.67;;;;;;;;;;6252369;28;20198;-68
2024/01/31 12:21:16;;;;;;;22.47;15.87;;;7.10;56.80;;;;;;6251976;28;20261;-68
2024/01/31 12:24:16;;;;;;;25.80;16.00;;;7.60;56.60;;;;;;6259649;28;20186;-68
2024/01/31 12:27:17;;;;;;;20.17;15.70;;;7.80;55.20;;;;;;6236783;28;20229;-68
2024/01/31 12:30:18;;;;;;;27.47;16.17;;;;;;;;;;6233789;28;20229;-68
2024/01/31 12:33:19;;;;;;;33.20;16.77;;;8.00;55.10;;;;;;6265213;28;20312;-68
2024/01/31 12:36:21;;;;;;;30.93;18.20;;;8.30;54.60;;;;;;6232766;28;20190;-66
2024/01/31 12:39:21;;;;;;;27.37;17.10;;;8.60;53.40;;;;;;6243629;28;20249;-66
2024/01/31 12:42:22;;;;;;;22.07;15.03;;;8.80;52.90;;;;;;6261843;28;20189;-66
2024/01/31 12:45:23;;;;;;;22.30;16.47;;;8.90;52.20;;;;;;6249632;28;20193;-66
2024/01/31 12:48:25;;;;;;;25.83;14.77;;;9.10;51.60;;;;;;6252334;28;20182;-66
2024/01/31 12:51:26;;;;;;;26.53;16.27;;;9.20;52.20;;;;;;6241631;28;20191;-66
2024/01/31 12:54:27;;;;;;;28.63;16.43;;;;;;;;;;6241536;28;20186;-66
2024/01/31 12:57:28;;;;;;;30.10;15.53;;;;;;;;;;6260366;28;20185;-66
2024/01/31 13:00:28;;;;;;;27.60;16.00;;;9.40;51.00;;;;;;6263017;28;20246;-66
2024/01/31 13:03:30;;;;;;;25.37;15.83;;;9.50;49.00;;;;;;6247977;28;20241;-67
2024/01/31 13:06:33;;;;;;;24.23;15.53;;;9.50;49.80;;;;;;6252513;28;20217;-62
2024/01/31 13:09:34;;;;;;;21.23;14.63;;;9.60;49.50;;;;;;6248034;28;20205;-67
2024/01/31 13:12:35;;;;;;;23.37;13.77;;;9.50;49.90;;;;;;6264942;28;20198;-67
2024/01/31 13:15:35;;;;;;;21.20;13.90;;;9.50;49.60;;;;;;6274669;28;20185;-67
2024/01/31 13:18:36;;;;;;;23.73;14.27;;;9.50;49.30;;;;;;6250319;28;20198;-69
2024/01/31 13:21:38;;;;;;;16.87;12.57;;;9.60;50.00;;;;;;6275973;28;20197;-71
2024/01/31 13:24:38;;;;;;;19.60;14.57;;;9.70;48.90;;;;;;6245223;28;20221;-69
2024/01/31 13:27:39;;;;;;;22.47;14.43;;;9.70;48.90;;;;;;6254994;28;20213;-69
2024/01/31 13:30:40;;;;;;;21.97;14.23;;;9.70;48.90;;;;;;6259029;28;20271;-69
2024/01/31 13:33:41;;;;;;;23.83;14.87;;;9.60;48.90;;;;;;6267530;28;20213;-70
2024/01/31 13:36:42;;;;;;;24.50;14.17;;;9.60;49.00;;;;;;6250563;28;20193;-69
2024/01/31 13:39:42;;;;;;;21.10;14.20;;;9.60;49.10;;;;;;6250046;28;20190;-69
2024/01/31 13:42:47;;;;;;;21.53;13.93;;;9.50;49.10;;;;;;6250703;28;20198;-70
2024/01/31 13:45:48;;;;;;;21.33;13.67;;;9.50;48.80;;;;;;6254771;28;20249;-70
2024/01/31 13:48:48;;;;;;;20.00;13.97;;;9.40;49.20;;;;;;6254907;28;20185;-70
2024/01/31 13:51:49;;;;;;;21.57;13.50;;;9.40;49.10;;;;;;6246418;28;20183;-71
2024/01/31 13:54:50;;;;;;;25.00;13.20;;;9.40;49.10;;;;;;6249821;28;20285;-69
2024/01/31 13:57:50;;;;;;;22.27;12.50;;;9.50;49.00;;;;;;6246131;28;20198;-69
2024/01/31 14:00:51;;;;;;;16.17;11.80;;;9.50;49.40;;;;;;6254724;28;20239;-69
2024/01/31 14:03:52;;;;;;;19.67;13.67;;;9.60;49.80;;;;;;6258101;28;20190;-70
2024/01/31 14:06:53;;;;;;;18.90;12.87;;;9.50;49.80;;;;;;6253096;28;20312;-70
2024/01/31 14:09:54;;;;;;;15.50;10.97;;;9.70;48.10;;;;;;6275941;28;20193;-69
2024/01/31 14:12:54;;;;;;;18.67;12.33;;;9.50;48.20;;;;;;6233548;28;20201;-70
2024/01/31 14:15:55;;;;;;;16.70;11.70;;;9.60;48.00;;;;;;6259137;28;20191;-69
2024/01/31 14:18:56;;;;;;;18.37;11.87;;;9.70;48.70;;;;;;6241442;28;20187;-70
2024/01/31 14:21:56;;;;;;;15.87;10.47;;;9.80;48.00;;;;;;6251484;28;20248;-69
2024/01/31 14:24:57;;;;;;;21.13;11.50;;;9.70;48.20;;;;;;6257549;28;20351;-72
2024/01/31 14:27:58;;;;;;;13.27;9.70;;;9.70;47.80;;;;;;6256348;28;20305;-69
2024/01/31 14:30:58;;;;;;;17.03;9.17;;;9.50;47.70;;;;;;6253526;28;20211;-72
2024/01/31 14:33:59;;;;;;;11.70;9.37;;;9.30;47.90;;;;;;6272320;28;20198;-72
2024/01/31 14:37:00;;;;;;;14.77;8.67;;;9.20;49.20;;;;;;6230748;28;20332;-72
2024/01/31 14:40:00;;;;;;;14.33;8.87;;;9.20;49.60;;;;;;6245528;28;20195;-71
2024/01/31 14:43:01;;;;;;;14.87;8.57;;;9.20;49.90;;;;;;6246369;28;20201;-71
2024/01/31 14:46:02;;;;;;;9.80;7.53;;;9.10;50.40;;;;;;6246893;28;20241;-71
2024/01/31 14:49:05;;;;;;;14.13;7.40;;;9.10;50.50;;;;;;6236485;28;20325;-68
2024/01/31 14:52:06;;;;;;;12.47;6.97;;;9.20;50.10;;;;;;6248002;28;20192;-68
2024/01/31 14:55:08;;;;;;;10.87;7.30;;;9.20;50.10;;;;;;6239540;28;20190;-70
2024/01/31 14:58:08;;;;;;;12.70;8.60;;;9.20;50.00;;;;;;6254964;28;20201;-69
2024/01/31 15:01:10;;;;;;;11.33;8.20;;;9.30;49.70;;;;;;6255611;28;20246;-68
2024/01/31 15:04:11;;;;;;;11.60;7.27;;;9.00;49.50;;;;;;6243823;28;20285;-69
2024/01/31 15:07:13;;;;;;;11.80;8.20;;;9.00;50.10;;;;;;6252495;28;20387;-68
2024/01/31 15:10:15;;;;;;;13.17;6.87;;;9.00;49.80;;;;;;6247874;28;20194;-68
2024/01/31 15:13:16;;;;;;;8.67;6.67;;;8.80;50.20;;;;;;6238375;28;20206;-69
2024/01/31 15:16:16;;;;;;;10.40;6.33;;;8.70;50.30;;;;;;6246698;28;20198;-69
2024/01/31 15:19:17;;;;;;;14.77;7.43;;;8.50;50.40;;;;;;6255985;28;20205;-68
2024/01/31 15:22:18;;;;;;;10.83;6.50;;;8.40;50.70;;;;;;6259662;28;20212;-68
2024/01/31 15:25:18;;;;;;;10.83;7.03;;;8.20;51.00;;;;;;6245642;28;20274;-67
2024/01/31 15:28:19;;;;;;;10.03;6.60;;;8.00;51.20;;;;;;6252743;28;20221;-67
2024/01/31 15:31:21;;;;;;;13.67;8.20;;;8.00;51.90;;;;;;6247842;28;20195;-68
2024/01/31 15:34:22;;;;;;;10.67;7.40;;;7.80;52.10;;;;;;6269264;28;20220;-68